Time;durP1;ratioP1;P1;durP2;ratioP2;P2;SDS_P1;SDS_P2;PMS_P1;PMS_P2;Temp;Humidity;BMP_temperature;BMP_pressure;BME280_temperature;BME280_humidity;BME280_pressure;Samples;Min_cycle;Max_cycle;Signal;HPM_P1;HPM_P2
2023/03/14 00:00:14;;;;;;;7.65;4.50;;;;;;;5.74;39.48;97788.16;10205221;28;20114;-55
2023/03/14 00:05:13;;;;;;;9.15;5.03;;;;;;;5.95;40.51;97815.09;10214863;28;20454;-55
2023/03/14 00:10:14;;;;;;;12.13;7.45;;;;;;;5.66;42.38;97832.59;10208419;28;20144;-55
2023/03/14 00:15:13;;;;;;;13.85;7.47;;;;;;;5.16;44.04;97805.00;10203601;28;20062;-55
2023/03/14 00:20:12;;;;;;;12.32;7.15;;;;;;;5.12;43.67;97808.34;10207536;28;20061;-55
2023/03/14 00:25:12;;;;;;;9.70;5.82;;;;;;;5.02;42.96;97794.41;10202295;28;20110;-55
2023/03/14 00:30:11;;;;;;;9.98;6.20;;;;;;;5.06;43.42;97782.47;10211563;28;20074;-55
2023/03/14 00:35:10;;;;;;;8.35;5.38;;;;;;;5.03;42.89;97770.41;10211647;28;20588;-55
2023/03/14 00:40:10;;;;;;;7.85;4.78;;;;;;;5.11;42.21;97766.31;10211708;28;20162;-55
2023/03/14 00:45:09;;;;;;;10.68;4.85;;;;;;;5.11;42.33;97786.91;10214421;28;20679;-55
2023/03/14 00:50:09;;;;;;;11.50;4.65;;;;;;;5.12;42.14;97751.75;10210413;28;20121;-55
2023/03/14 00:55:08;;;;;;;9.00;4.40;;;;;;;4.99;41.84;97736.88;10214497;28;20135;-55
2023/03/14 01:00:11;;;;;;;8.68;4.00;;;;;;;5.15;41.62;97756.09;10202726;28;20070;-55
2023/03/14 01:05:10;;;;;;;7.35;4.18;;;;;;;5.23;41.27;97755.41;10235771;28;20077;-55
2023/03/14 01:10:10;;;;;;;7.28;4.20;;;;;;;5.26;41.22;97744.31;10241342;28;20133;-56
2023/03/14 01:15:09;;;;;;;7.65;5.00;;;;;;;5.34;41.25;97729.88;10245586;28;20101;-56
2023/03/14 01:20:11;;;;;;;13.07;7.95;;;;;;;5.05;43.14;97686.44;10249736;28;20076;-55
2023/03/14 01:25:13;;;;;;;15.60;9.23;;;;;;;4.99;43.63;97724.91;10248283;28;20133;-55
2023/03/14 01:30:13;;;;;;;19.77;10.40;;;;;;;4.89;44.38;97717.81;10249543;28;20883;-54
2023/03/14 01:35:12;;;;;;;18.23;11.35;;;;;;;4.27;46.96;97695.91;10248893;28;20122;-54
2023/03/14 01:40:13;;;;;;;16.63;9.70;;;;;;;4.04;48.33;97708.22;10245533;28;20033;-54
2023/03/14 01:45:50;;;;;;;13.60;9.30;;;;;;;3.71;48.83;97707.41;10244674;28;20077;-54
2023/03/14 01:50:49;;;;;;;16.33;10.13;;;;;;;3.51;49.54;97710.31;10244289;28;20065;-54
2023/03/14 01:55:49;;;;;;;14.52;9.18;;;;;;;3.32;50.45;97706.41;10246987;28;20402;-55
2023/03/14 02:00:48;;;;;;;14.77;9.55;;;;;;;3.22;50.42;97707.00;10246722;28;20110;-54
2023/03/14 02:05:49;;;;;;;13.05;8.50;;;;;;;3.09;50.87;97700.63;10207076;28;20037;-54
2023/03/14 02:10:49;;;;;;;17.10;9.68;;;;;;;2.93;52.01;97703.59;10206897;28;20062;-54
2023/03/14 02:15:49;;;;;;;18.90;12.57;;;;;;;2.85;51.81;97711.09;10206393;28;20125;-54
2023/03/14 02:21:16;;;;;;;17.23;10.80;;;;;;;2.87;51.30;97709.44;10207716;28;20544;-54
2023/03/14 02:26:23;;;;;;;16.23;10.73;;;;;;;2.73;52.18;97703.91;10205654;28;20560;-55
2023/03/14 02:31:22;;;;;;;16.45;9.55;;;;;;;2.70;52.77;97705.50;10246562;28;21509;-55
2023/03/14 02:36:22;;;;;;;14.93;9.88;;;;;;;2.79;51.96;97710.91;10245740;28;20149;-54
2023/03/14 02:41:21;;;;;;;16.25;10.23;;;;;;;2.73;51.99;97710.75;10246698;28;20065;-54
2023/03/14 02:46:21;;;;;;;;;;;;;;;2.76;52.46;97698.00;10245592;28;20058;-54
2023/03/14 02:51:22;;;;;;;18.63;10.30;;;;;;;2.67;52.95;97690.06;10243685;28;19984;-54
2023/03/14 02:56:21;;;;;;;14.25;8.88;;;;;;;2.63;53.16;97688.22;10245614;28;20114;-54
2023/03/14 03:01:20;;;;;;;23.10;13.02;;;;;;;2.42;54.54;97686.78;10242689;28;20043;-54
2023/03/14 03:06:19;;;;;;;23.58;16.83;;;;;;;2.35;54.78;97690.84;10204951;28;20027;-54
2023/03/14 03:11:18;;;;;;;35.00;21.25;;;;;;;2.23;55.12;97682.81;10205413;28;20031;-55
2023/03/14 03:16:16;;;;;;;;;;;;;;;2.29;55.12;97705.16;10204900;28;20137;-54
2023/03/14 03:21:15;;;;;;;37.10;19.45;;;;;;;2.14;55.84;97711.53;10204743;28;19988;-54
2023/03/14 03:26:14;;;;;;;25.65;15.82;;;;;;;2.07;56.45;97712.16;10204670;28;20113;-54
2023/03/14 03:31:13;;;;;;;33.85;18.35;;;;;;;1.96;56.52;97686.22;10203973;28;20117;-54
2023/03/14 03:36:12;;;;;;;33.05;18.80;;;;;;;1.98;56.31;97705.91;10204213;28;20138;-61
2023/03/14 03:41:11;;;;;;;42.17;21.92;;;;;;;1.91;56.58;97710.81;10204109;28;20038;-57
2023/03/14 03:46:10;;;;;;;47.83;24.42;;;;;;;1.87;56.74;97714.09;10204623;28;20046;-58
2023/03/14 03:51:16;;;;;;;51.15;24.02;;;;;;;1.79;57.58;97699.31;10203285;28;20113;-60
2023/03/14 03:56:15;;;;;;;62.92;31.75;;;;;;;1.65;58.11;97696.31;10242814;28;20512;-58
2023/03/14 04:01:14;;;;;;;51.05;29.70;;;;;;;1.43;59.37;97687.03;10240736;28;20125;-60
2023/03/14 04:06:13;;;;;;;52.00;30.30;;;;;;;1.45;58.80;97693.94;10202347;28;20050;-59
2023/03/14 04:11:12;;;;;;;51.80;30.38;;;;;;;1.50;58.36;97697.50;10241236;28;20137;-56
2023/03/14 04:16:16;;;;;;;56.75;30.55;;;;;;;1.54;58.37;97698.50;10242731;28;20049;-61
2023/03/14 04:21:17;;;;;;;41.55;24.75;;;;;;;1.53;58.32;97699.34;10242522;28;20057;-56
2023/03/14 04:26:16;;;;;;;89.45;41.70;;;;;;;1.43;58.82;97697.25;10240828;28;20134;-56
2023/03/14 04:31:18;;;;;;;74.88;37.33;;;;;;;1.43;58.95;97679.38;10241264;28;20473;-55
2023/03/14 04:36:17;;;;;;;66.90;35.67;;;;;;;1.27;59.45;97655.84;10242138;28;20473;-56
2023/03/14 04:41:16;;;;;;;60.33;33.85;;;;;;;1.38;59.73;97665.56;10242291;28;20037;-55
2023/03/14 04:46:15;;;;;;;60.47;31.65;;;;;;;1.38;59.86;97665.56;10242311;28;20041;-55
2023/03/14 04:51:14;;;;;;;60.30;32.95;;;;;;;1.40;60.09;97658.81;10248688;28;20034;-55
2023/03/14 04:56:13;;;;;;;85.28;48.95;;;;;;;1.29;60.25;97636.34;10250753;28;20121;-55
2023/03/14 05:01:12;;;;;;;61.35;38.45;;;;;;;1.46;60.04;97649.66;10248765;28;20034;-56
2023/03/14 05:06:11;;;;;;;64.10;35.38;;;;;;;1.54;60.72;97645.66;10209448;28;20154;-56
2023/03/14 05:11:12;;;;;;;59.85;36.13;;;;;;;1.56;60.90;97650.84;10209896;28;20070;-55
2023/03/14 05:16:11;;;;;;;67.30;39.40;;;;;;;1.49;61.80;97654.88;10248035;28;20082;-55
2023/03/14 05:21:10;;;;;;;;;;;;;;;1.62;61.79;97651.03;10249739;28;20475;-55
2023/03/14 05:26:09;;;;;;;89.15;51.42;;;;;;;1.78;61.67;97654.94;10248530;28;20426;-55
2023/03/14 05:31:08;;;;;;;91.10;52.88;;;;;;;1.85;61.52;97654.31;10238790;28;20531;-55
2023/03/14 05:36:08;;;;;;;91.05;52.05;;;;;;;1.00;60.86;97458.16;10208743;28;20109;-55
2023/03/14 05:41:07;;;;;;;82.43;45.20;;;;;;;2.15;60.88;97636.47;10225821;28;20121;-56
2023/03/14 05:46:06;;;;;;;;;;;;;;;2.31;59.69;97639.50;10185323;28;20070;-55
2023/03/14 05:51:05;;;;;;;60.97;37.58;;;;;;;2.55;58.46;97629.09;10173668;28;19953;-55
2023/03/14 05:56:04;;;;;;;;;;;;;;;2.81;57.76;97627.25;10209261;28;20738;-55
2023/03/14 06:01:05;;;;;;;34.00;22.17;;;;;;;2.98;56.95;97625.13;10208647;28;20423;-55
2023/03/14 06:06:04;;;;;;;24.48;15.88;;;;;;;3.27;55.55;97630.19;10246179;28;20134;-55
2023/03/14 06:11:03;;;;;;;;;;;;;;;3.54;54.04;97628.31;10248237;28;20181;-55
2023/03/14 06:16:02;;;;;;;27.65;16.30;;;;;;;3.71;53.37;97609.88;10248468;28;20013;-55
2023/03/14 06:21:01;;;;;;;27.50;16.85;;;;;;;3.99;52.82;97609.69;10247771;28;20066;-56
2023/03/14 06:26:00;;;;;;;32.95;19.40;;;;;;;4.29;52.07;97604.34;10231757;28;20473;-56
2023/03/14 06:31:00;;;;;;;;;;;;;;;4.56;51.63;97608.31;10229509;28;20074;-55
2023/03/14 06:35:59;;;;;;;41.13;23.20;;;;;;;4.80;49.58;97597.66;10209403;28;20012;-55
2023/03/14 06:41:07;;;;;;;25.85;16.80;;;;;;;4.90;48.89;97591.00;10212980;28;21016;-55
2023/03/14 06:46:06;;;;;;;26.33;15.15;;;;;;;5.09;49.42;97595.66;10208902;28;20050;-55
2023/03/14 06:51:06;;;;;;;24.10;14.68;;;;;;;5.17;51.15;97598.38;10207581;28;20054;-56
2023/03/14 06:56:05;;;;;;;24.60;15.52;;;;;;;5.38;51.95;97603.00;10207119;28;20759;-56
2023/03/14 07:01:05;;;;;;;12.98;8.10;;;;;;;5.32;49.77;97595.19;10230883;28;20085;-53
2023/03/14 07:06:04;;;;;;;;;;;;;;;5.55;48.24;97572.41;10207468;28;20058;-54
2023/03/14 07:11:02;;;;;;;17.05;9.13;;;;;;;5.82;48.68;97576.25;10207750;28;19918;-54
2023/03/14 07:16:01;;;;;;;19.33;11.85;;;;;;;5.76;48.91;97513.50;10213198;28;20105;-54
2023/03/14 07:21:00;;;;;;;24.83;10.63;;;;;;;6.35;48.55;97563.22;10206158;28;20035;-54
2023/03/14 07:25:59;;;;;;;18.63;11.55;;;;;;;6.58;48.13;97558.34;10210720;28;20585;-55
2023/03/14 07:30:58;;;;;;;20.42;12.05;;;;;;;6.96;47.39;97547.56;10209022;28;20530;-55
2023/03/14 07:35:57;;;;;;;18.10;9.57;;;;;;;7.25;46.09;97540.97;10223253;28;20234;-55
2023/03/14 07:41:01;;;;;;;13.45;8.20;;;;;;;7.24;44.03;97442.88;10204212;28;20073;-55
2023/03/14 07:46:00;;;;;;;15.63;6.90;;;;;;;8.24;42.65;97527.03;10203579;28;20457;-55
2023/03/14 07:50:59;;;;;;;;;;;;;;;8.78;39.63;97519.44;10204875;28;20538;-55
2023/03/14 07:55:58;;;;;;;11.32;6.53;;;;;;;9.19;38.88;97505.72;10209855;28;20491;-55
2023/03/14 08:00:58;;;;;;;13.15;6.25;;;;;;;9.43;37.88;97493.66;10203696;28;20749;-55
2023/03/14 08:05:57;;;;;;;7.20;4.53;;;;;;;9.82;36.44;97484.97;10211625;28;20069;-55
2023/03/14 08:11:01;;;;;;;10.00;5.88;;;;;;;10.23;35.58;97490.88;10203834;28;20058;-55
2023/03/14 08:16:00;;;;;;;8.15;3.50;;;;;;;10.52;34.74;97495.94;10213505;28;20141;-55
2023/03/14 08:20:59;;;;;;;9.25;4.20;;;;;;;10.80;34.71;97496.66;10209433;28;20413;-55
2023/03/14 08:25:58;;;;;;;;;;;;;;;11.02;33.93;97503.47;10203846;28;20133;-55
2023/03/14 08:30:57;;;;;;;6.80;3.53;;;;;;;11.26;33.91;97488.56;10205400;28;20009;-56
2023/03/14 08:35:58;;;;;;;8.90;4.00;;;;;;;11.59;34.05;97476.16;10207454;28;20050;-56
2023/03/14 08:40:59;;;;;;;6.28;3.45;;;;;;;11.85;32.81;97492.38;10205133;28;20070;-56
2023/03/14 08:45:59;;;;;;;8.23;3.47;;;;;;;12.06;32.91;97472.19;10208508;28;20438;-56
2023/03/14 08:51:13;;;;;;;5.00;3.33;;;;;;;12.33;32.31;97460.63;10207512;28;20062;-56
2023/03/14 08:56:12;;;;;;;9.63;3.80;;;;;;;12.66;31.49;97456.72;10214445;28;20131;-56
2023/03/14 09:01:11;;;;;;;8.38;3.65;;;;;;;12.96;30.88;97438.94;10213237;28;20109;-56
2023/03/14 09:06:10;;;;;;;;;;;;;;;13.27;30.41;97443.63;10218234;28;20058;-56
2023/03/14 09:11:09;;;;;;;10.65;3.67;;;;;;;13.49;29.78;97431.97;10203856;28;19922;-56
2023/03/14 09:16:09;;;;;;;6.20;3.45;;;;;;;13.59;29.52;97424.88;10206594;28;20122;-56
2023/03/14 09:21:07;;;;;;;5.75;3.20;;;;;;;13.83;29.42;97407.88;10205616;28;20069;-56
2023/03/14 09:26:06;;;;;;;;;;;;;;;14.18;28.88;97403.72;10204704;28;20030;-56
2023/03/14 09:31:10;;;;;;;14.43;3.70;;;;;;;14.50;28.45;97383.84;10218113;28;20304;-56
2023/03/14 09:36:09;;;;;;;7.75;3.47;;;;;;;14.76;28.59;97384.16;10211185;28;20085;-56
2023/03/14 09:41:31;;;;;;;9.70;3.60;;;;;;;14.96;28.13;97370.59;10208745;28;20066;-56
2023/03/14 09:46:33;;;;;;;5.68;3.03;;;;;;;15.11;27.23;97364.16;10217974;28;20094;-56
2023/03/14 09:51:32;;;;;;;7.80;2.83;;;;;;;15.12;27.13;97358.03;10208474;28;20150;-56
2023/03/14 09:56:33;;;;;;;8.68;3.38;;;;;;;15.29;26.91;97349.72;10213192;28;20109;-56
2023/03/14 10:01:33;;;;;;;17.73;3.30;;;;;;;15.01;27.27;97281.66;10213193;28;20057;-56
2023/03/14 10:06:32;;;;;;;10.90;3.08;;;;;;;15.45;26.52;97321.41;10223089;28;20473;-55
2023/03/14 10:11:31;;;;;;;8.35;3.15;;;;;;;15.53;26.52;97303.78;10209390;28;20138;-55
2023/03/14 10:16:31;;;;;;;;;;;;;;;15.73;26.57;97286.66;10212226;28;20070;-55
2023/03/14 10:21:33;;;;;;;6.28;3.10;;;;;;;15.69;26.73;97241.41;10210339;28;19957;-55
2023/03/14 10:26:34;;;;;;;3.20;2.30;;;;;;;15.99;26.08;97263.19;10204913;28;20150;-55
2023/03/14 10:32:09;;;;;;;7.68;3.38;;;;;;;16.28;26.25;97258.84;10209090;28;20109;-56
2023/03/14 10:37:22;;;;;;;8.75;3.00;;;;;;;16.45;25.42;97243.44;10208902;28;20438;-56
2023/03/14 10:42:29;;;;;;;3.88;2.35;;;;;;;16.76;25.41;97238.94;10206443;28;20584;-57
2023/03/14 10:47:29;;;;;;;8.90;2.70;;;;;;;16.93;25.27;97226.13;10206373;28;20070;-56
2023/03/14 10:52:29;;;;;;;9.50;2.85;;;;;;;17.12;24.99;97214.09;10210495;28;20569;-56
2023/03/14 10:57:28;;;;;;;4.13;2.40;;;;;;;16.95;25.26;97144.84;10218939;28;20141;-56
2023/03/14 11:02:34;;;;;;;6.03;2.83;;;;;;;17.47;25.14;97195.34;10219960;28;20838;-56
2023/03/14 11:07:40;;;;;;;10.68;2.95;;;;;;;17.60;24.34;97180.00;10210621;28;20069;-56
2023/03/14 11:13:07;;;;;;;7.78;2.20;;;;;;;17.73;24.90;97171.59;10217063;28;20084;-57
2023/03/14 11:18:24;;;;;;;5.00;2.53;;;;;;;18.01;24.34;97165.28;10209877;28;20122;-58
2023/03/14 11:23:30;;;;;;;5.47;2.00;;;;;;;18.07;23.60;97148.44;10207491;28;20066;-56
2023/03/14 11:28:45;;;;;;;8.10;2.20;;;;;;;18.00;24.09;97137.31;10209089;28;20050;-56
2023/03/14 11:34:06;;;;;;;4.68;2.20;;;;;;;18.06;24.02;97118.69;10221301;28;20074;-56
2023/03/14 11:39:14;;;;;;;4.32;2.20;;;;;;;17.96;23.69;97096.34;10204967;28;20107;-56
2023/03/14 11:44:37;;;;;;;3.58;2.30;;;;;;;18.09;22.78;97097.56;10202902;28;20118;-57
2023/03/14 11:50:01;;;;;;;4.07;2.30;;;;;;;18.03;22.28;97094.31;10208591;28;20061;-58
2023/03/14 11:55:20;;;;;;;4.93;2.17;;;;;;;18.22;23.13;97079.50;10218240;28;20066;-56
2023/03/14 12:00:21;;;;;;;4.05;2.10;;;;;;;18.18;22.84;97063.03;10216440;28;20073;-57
2023/03/14 12:06:01;;;;;;;4.32;2.53;;;;;;;18.38;23.26;97059.53;10216751;28;20101;-57
2023/03/14 12:11:05;;;;;;;5.97;2.22;;;;;;;18.51;22.65;97049.38;10208203;28;20058;-56
2023/03/14 12:16:26;;;;;;;8.40;2.30;;;;;;;18.69;22.19;97042.47;10214900;28;20071;-56
2023/03/14 12:21:46;;;;;;;2.17;1.98;;;;;;;18.76;21.84;97028.13;10203544;28;20073;-57
2023/03/14 12:26:57;;;;;;;6.50;2.30;;;;;;;18.77;22.21;97018.47;10213911;28;20077;-57
2023/03/14 12:32:25;;;;;;;3.25;1.80;;;;;;;18.79;21.69;97016.63;10204359;28;20504;-57
2023/03/14 12:37:36;;;;;;;5.55;1.92;;;;;;;18.82;22.75;96984.94;10214912;28;20461;-57
2023/03/14 12:42:59;;;;;;;4.80;2.15;;;;;;;18.87;21.72;96995.22;10216861;28;20487;-57
2023/03/14 12:48:02;;;;;;;2.80;2.10;;;;;;;18.83;21.50;96994.53;10206889;28;20070;-56
2023/03/14 12:53:37;;;;;;;6.15;2.40;;;;;;;18.95;22.29;96991.34;10224197;28;20122;-56
2023/03/14 12:58:47;;;;;;;3.35;2.25;;;;;;;19.03;22.35;96976.03;10206874;28;20588;-56
2023/03/14 13:03:53;;;;;;;4.00;2.15;;;;;;;19.03;22.03;96968.13;10224281;28;20137;-56
2023/03/14 13:08:56;;;;;;;4.55;2.20;;;;;;;19.00;21.75;96963.03;10205155;28;20074;-56
2023/03/14 13:13:59;;;;;;;3.05;2.33;;;;;;;18.75;22.72;96951.97;10222321;28;20081;-57
2023/03/14 13:19:09;;;;;;;3.70;2.10;;;;;;;18.76;22.83;96951.91;10214480;28;20077;-56
2023/03/14 13:24:26;;;;;;;6.35;2.22;;;;;;;18.72;22.88;96949.50;10224803;28;20074;-56
2023/03/14 13:29:26;;;;;;;8.95;2.70;;;;;;;18.70;22.28;96938.19;10208895;28;20893;-57
2023/03/14 13:34:28;;;;;;;4.15;2.60;;;;;;;18.78;22.88;96923.78;10221771;28;20070;-57
2023/03/14 13:39:29;;;;;;;5.85;2.45;;;;;;;18.78;22.74;96913.28;10228505;28;20074;-57
2023/03/14 13:44:34;;;;;;;7.25;2.38;;;;;;;18.77;22.46;96900.19;10221483;28;20085;-57
2023/03/14 13:49:36;;;;;;;5.05;2.40;;;;;;;18.67;22.46;96891.88;10215799;28;20062;-57
2023/03/14 13:54:38;;;;;;;6.03;2.25;;;;;;;18.65;22.43;96887.59;10221214;28;20117;-57
2023/03/14 13:59:37;;;;;;;4.57;2.05;;;;;;;18.64;22.47;96883.25;10220126;28;20151;-57
2023/03/14 14:04:37;;;;;;;3.47;2.17;;;;;;;18.59;22.21;96868.56;10214143;28;20121;-55
2023/03/14 14:09:42;;;;;;;3.85;2.05;;;;;;;18.00;22.36;96800.44;10219281;28;20089;-55
2023/03/14 14:14:44;;;;;;;4.22;1.90;;;;;;;18.24;22.72;96829.97;10218115;28;20513;-56
2023/03/14 14:19:45;;;;;;;2.70;1.90;;;;;;;18.19;22.03;96840.69;10218681;28;20150;-56
2023/03/14 14:24:46;;;;;;;4.38;2.17;;;;;;;18.04;22.48;96837.00;10206305;28;20062;-56
2023/03/14 14:30:00;;;;;;;4.18;1.77;;;;;;;17.87;22.93;96815.88;10210255;28;20073;-56
2023/03/14 14:35:00;;;;;;;4.45;2.05;;;;;;;17.94;23.16;96818.19;10218735;28;20117;-56
2023/03/14 14:40:18;;;;;;;2.42;1.98;;;;;;;17.83;22.68;96804.69;10209668;28;20110;-56
2023/03/14 14:45:20;;;;;;;5.90;2.28;;;;;;;17.52;22.99;96764.06;10243601;28;20081;-57
2023/03/14 14:50:58;;;;;;;4.65;2.20;;;;;;;17.57;23.09;96805.84;10217207;28;20066;-57
2023/03/14 14:56:03;;;;;;;5.38;3.03;;;;;;;17.49;23.12;96797.44;10196227;28;20142;-57
2023/03/14 15:01:14;;;;;;;3.20;2.42;;;;;;;17.38;23.83;96791.81;10207036;28;20118;-56
2023/03/14 15:06:15;;;;;;;6.18;2.50;;;;;;;17.31;24.29;96791.25;10225622;28;20063;-56
2023/03/14 15:11:22;;;;;;;5.22;2.78;;;;;;;17.11;25.19;96784.22;10206427;28;20069;-56
2023/03/14 15:16:27;;;;;;;7.05;2.97;;;;;;;16.82;25.45;96760.09;10210637;28;20093;-56
2023/03/14 15:21:27;;;;;;;6.53;3.22;;;;;;;16.86;25.50;96777.41;10208242;28;20078;-56
2023/03/14 15:26:27;;;;;;;6.50;3.70;;;;;;;16.58;26.49;96774.16;10231073;28;20065;-56
2023/03/14 15:31:26;;;;;;;6.75;3.42;;;;;;;16.26;26.85;96769.31;10215740;28;20121;-56
2023/03/14 15:36:31;;;;;;;6.68;3.53;;;;;;;16.05;26.93;96776.25;10218218;28;20423;-56
2023/03/14 15:41:30;;;;;;;5.50;3.45;;;;;;;15.75;27.64;96777.38;10213624;28;21421;-56
2023/03/14 15:46:29;;;;;;;6.78;4.15;;;;;;;15.45;28.03;96769.75;10219724;28;20503;-56
2023/03/14 15:51:28;;;;;;;;;;;;;;;15.16;28.62;96762.94;10205666;28;20520;-56
2023/03/14 15:56:30;;;;;;;6.27;4.10;;;;;;;14.85;28.71;96757.91;10212451;28;20430;-56
2023/03/14 16:01:29;;;;;;;11.60;4.72;;;;;;;14.47;29.76;96757.41;10216109;28;20143;-56
2023/03/14 16:06:28;;;;;;;;;;;;;;;14.21;30.01;96753.88;10214289;28;20042;-55
2023/03/14 16:11:27;;;;;;;6.80;4.63;;;;;;;14.00;29.89;96737.13;10205761;28;19953;-56
2023/03/14 16:16:26;;;;;;;;;;;;;;;13.70;30.65;96738.91;10216780;28;20038;-56
2023/03/14 16:21:25;;;;;;;7.95;5.15;;;;;;;13.38;31.32;96737.22;10211525;28;19956;-55
2023/03/14 16:26:24;;;;;;;;;;;;;;;13.08;31.61;96739.78;10213531;28;20046;-55
2023/03/14 16:31:24;;;;;;;12.50;5.32;;;;;;;12.92;31.99;96748.00;10218342;28;20772;-55
2023/03/14 16:36:23;;;;;;;10.60;5.90;;;;;;;12.77;32.47;96739.75;10216084;28;20067;-55
2023/03/14 16:41:22;;;;;;;;;;;;;;;12.47;32.60;96747.44;10215350;28;20036;-55
2023/03/14 16:46:21;;;;;;;11.27;5.97;;;;;;;12.33;32.61;96744.31;10223391;28;19949;-55
2023/03/14 16:51:21;;;;;;;8.57;4.95;;;;;;;12.22;32.73;96729.78;10219088;28;20509;-55
2023/03/14 16:56:20;;;;;;;14.23;5.60;;;;;;;12.18;33.08;96730.75;10230616;28;20070;-55
2023/03/14 17:01:20;;;;;;;;;;;;;;;11.96;33.59;96720.00;10219983;28;20144;-56
2023/03/14 17:06:25;;;;;;;17.90;6.73;;;;;;;11.91;33.39;96739.19;10214036;28;19992;-55
2023/03/14 17:11:23;;;;;;;12.10;5.68;;;;;;;11.79;34.51;96743.78;10214245;28;20134;-55
2023/03/14 17:16:22;;;;;;;12.35;6.03;;;;;;;11.57;34.21;96733.00;10222063;28;20416;-56
2023/03/14 17:21:22;;;;;;;16.25;7.18;;;;;;;11.56;33.97;96728.69;10216104;28;20417;-55
2023/03/14 17:26:21;;;;;;;17.00;6.53;;;;;;;11.41;34.58;96729.88;10220804;28;20062;-56
2023/03/14 17:31:22;;;;;;;10.55;7.07;;;;;;;11.25;35.15;96724.13;10217024;28;20431;-56
2023/03/14 17:36:25;;;;;;;18.45;7.30;;;;;;;11.09;34.92;96720.13;10217253;28;20081;-56
2023/03/14 17:41:24;;;;;;;38.53;7.85;;;;;;;10.94;35.88;96705.72;10217881;28;20561;-55
2023/03/14 17:46:23;;;;;;;34.85;7.35;;;;;;;10.83;35.55;96716.25;10226490;28;20499;-55
2023/03/14 17:51:22;;;;;;;34.58;7.47;;;;;;;10.64;36.44;96712.28;10225233;28;20138;-55
2023/03/14 17:56:22;;;;;;;;;;;;;;;10.56;36.41;96719.34;10214746;28;20137;-55
2023/03/14 18:01:21;;;;;;;13.60;5.95;;;;;;;10.52;36.31;96726.34;10214300;28;20300;-55
2023/03/14 18:06:22;;;;;;;11.10;5.15;;;;;;;10.44;36.23;96728.19;10209632;28;20066;-55
2023/03/14 18:11:21;;;;;;;19.30;6.50;;;;;;;10.22;35.87;96667.22;10216057;28;20109;-54
2023/03/14 18:16:20;;;;;;;10.10;5.50;;;;;;;10.41;36.59;96708.34;10208433;28;20567;-55
2023/03/14 18:21:20;;;;;;;12.63;5.50;;;;;;;10.23;36.58;96710.41;10219414;28;20511;-55
2023/03/14 18:26:20;;;;;;;11.20;6.00;;;;;;;10.33;36.49;96722.31;10205330;28;20070;-55
2023/03/14 18:31:21;;;;;;;13.02;5.95;;;;;;;10.30;36.26;96718.06;10215844;28;20121;-56
2023/03/14 18:36:21;;;;;;;9.82;5.10;;;;;;;10.26;36.17;96731.09;10207915;28;20066;-55
2023/03/14 18:41:22;;;;;;;;;;;;;;;10.18;36.44;96723.44;10210800;28;20540;-54
2023/03/14 18:46:21;;;;;;;10.55;5.20;;;;;;;10.08;36.55;96720.16;10208598;28;20359;-54
2023/03/14 18:51:19;;;;;;;7.47;4.85;;;;;;;10.06;36.05;96708.94;10216514;28;20069;-54
2023/03/14 18:56:18;;;;;;;9.85;5.05;;;;;;;10.03;36.05;96721.97;10208896;28;20038;-56
2023/03/14 19:01:17;;;;;;;8.93;4.90;;;;;;;9.70;36.27;96653.34;10215341;28;20568;-56
2023/03/14 19:06:17;;;;;;;8.93;4.97;;;;;;;10.05;36.27;96714.13;10202397;28;20552;-56
2023/03/14 19:11:16;;;;;;;;;;;;;;;10.07;35.90;96709.78;10212513;28;20148;-56
2023/03/14 19:16:15;;;;;;;6.13;4.77;;;;;;;10.05;36.74;96714.13;10204324;28;20017;-56
2023/03/14 19:21:31;;;;;;;7.57;4.60;;;;;;;10.04;35.82;96710.69;10213587;28;20042;-55
2023/03/14 19:26:33;;;;;;;9.20;4.88;;;;;;;10.06;35.80;96708.94;10201926;28;20126;-55
2023/03/14 19:31:32;;;;;;;9.38;4.55;;;;;;;10.09;35.43;96705.44;10213697;28;21224;-55
2023/03/14 19:36:33;;;;;;;8.73;4.53;;;;;;;10.19;35.82;96699.22;10207592;28;20046;-55
2023/03/14 19:41:33;;;;;;;8.20;4.28;;;;;;;9.92;35.28;96653.88;10212163;28;20544;-55
2023/03/14 19:46:34;;;;;;;7.13;4.15;;;;;;;10.16;34.88;96673.34;10218604;28;20723;-55
2023/03/14 19:51:34;;;;;;;7.05;4.53;;;;;;;10.15;34.97;96672.50;10178062;28;20457;-55
2023/03/14 19:56:33;;;;;;;10.38;4.72;;;;;;;10.23;34.98;96668.94;10205494;28;20505;-55
2023/03/14 20:01:33;;;;;;;6.70;4.03;;;;;;;10.19;34.70;96662.91;10212506;28;20158;-55
2023/03/14 20:06:33;;;;;;;6.28;3.85;;;;;;;10.07;34.87;96666.56;10204504;28;20507;-55
2023/03/14 20:11:34;;;;;;;11.27;4.10;;;;;;;9.90;35.39;96653.03;10213368;28;20556;-55
2023/03/14 20:16:35;;;;;;;8.95;4.30;;;;;;;10.08;34.25;96665.72;10203698;28;20129;-55
2023/03/14 20:21:34;;;;;;;8.48;4.13;;;;;;;10.07;34.40;96676.94;10198953;28;20145;-56
2023/03/14 20:26:35;;;;;;;7.97;3.85;;;;;;;10.02;35.16;96670.97;10204875;28;20560;-55
2023/03/14 20:31:36;;;;;;;7.35;3.65;;;;;;;9.91;34.92;96667.69;10212462;28;20118;-55
2023/03/14 20:36:36;;;;;;;13.55;3.80;;;;;;;9.95;35.23;96666.78;10205420;28;20078;-55
2023/03/14 20:41:40;;;;;;;8.98;3.90;;;;;;;9.84;34.90;96677.34;10211582;28;20576;-55
2023/03/14 20:46:39;;;;;;;5.57;3.05;;;;;;;9.78;35.28;96649.75;10210904;28;20121;-55
2023/03/14 20:51:38;;;;;;;5.47;3.30;;;;;;;9.83;35.14;96664.41;10219397;28;20058;-55
2023/03/14 20:56:37;;;;;;;8.05;3.88;;;;;;;9.72;34.53;96657.66;10199607;28;20085;-55
2023/03/14 21:01:36;;;;;;;6.75;3.17;;;;;;;9.68;35.08;96645.63;10205160;28;20479;-55
2023/03/14 21:06:35;;;;;;;4.30;3.00;;;;;;;9.61;34.59;96612.06;10200777;28;20502;-55
2023/03/14 21:11:40;;;;;;;7.35;3.78;;;;;;;9.52;34.11;96592.34;10210434;28;20460;-55
2023/03/14 21:16:41;;;;;;;6.68;3.58;;;;;;;9.62;34.43;96624.97;10204151;28;20134;-55
2023/03/14 21:21:40;;;;;;;6.80;3.20;;;;;;;9.32;34.52;96582.28;10209409;28;20101;-55
2023/03/14 21:26:40;;;;;;;5.28;3.35;;;;;;;9.41;34.55;96602.00;10205104;28;20504;-55
2023/03/14 21:31:39;;;;;;;9.38;3.53;;;;;;;8.65;34.38;96463.34;10212924;28;20069;-55
2023/03/14 21:36:38;;;;;;;6.88;3.55;;;;;;;9.44;34.65;96594.19;10212821;28;20113;-55
2023/03/14 21:41:37;;;;;;;6.68;3.38;;;;;;;9.33;34.32;96592.63;10215522;28;20069;-55
2023/03/14 21:46:36;;;;;;;6.95;3.80;;;;;;;9.46;34.78;96618.31;10209158;28;20035;-55
2023/03/14 21:51:35;;;;;;;5.80;3.63;;;;;;;9.45;34.99;96612.28;10228517;28;20034;-56
2023/03/14 21:56:34;;;;;;;6.00;3.47;;;;;;;9.35;34.83;96621.09;10213680;28;20073;-56
2023/03/14 22:01:33;;;;;;;8.30;5.00;;;;;;;9.26;35.02;96609.09;10208661;28;20129;-56
2023/03/14 22:06:33;;;;;;;8.90;4.57;;;;;;;9.30;34.87;96618.56;10207380;28;20552;-56
2023/03/14 22:11:32;;;;;;;6.38;3.88;;;;;;;9.18;35.03;96608.31;10212331;28;20476;-56
2023/03/14 22:16:31;;;;;;;4.47;3.13;;;;;;;9.08;34.87;96612.78;10215129;28;20420;-53
2023/03/14 22:21:30;;;;;;;6.10;3.22;;;;;;;8.94;34.71;96574.16;10209805;28;20038;-54
2023/03/14 22:26:29;;;;;;;5.45;2.97;;;;;;;9.10;34.39;96607.59;10215311;28;20070;-54
2023/03/14 22:31:28;;;;;;;4.90;2.90;;;;;;;9.03;34.70;96603.38;10210647;28;20033;-53
2023/03/14 22:36:27;;;;;;;7.75;3.83;;;;;;;9.11;34.31;96601.53;10215125;28;20046;-53
2023/03/14 22:41:26;;;;;;;5.80;3.05;;;;;;;9.12;34.03;96598.06;10207545;28;20118;-54
2023/03/14 22:46:25;;;;;;;5.45;3.10;;;;;;;9.15;34.15;96593.69;10215267;28;20026;-54
2023/03/14 22:51:24;;;;;;;6.50;3.20;;;;;;;9.09;34.68;96592.91;10207182;28;20023;-54
2023/03/14 22:56:23;;;;;;;7.55;3.25;;;;;;;9.05;34.81;96586.09;10215321;28;20070;-54
2023/03/14 23:01:22;;;;;;;5.07;2.75;;;;;;;9.03;34.42;96578.34;10203643;28;20035;-55
2023/03/14 23:06:21;;;;;;;;;;;;;;;8.97;34.76;96587.91;10200751;28;20125;-55
2023/03/14 23:11:20;;;;;;;7.15;2.60;;;;;;;8.94;34.63;96574.16;10225852;28;19920;-55
2023/03/14 23:16:22;;;;;;;6.68;3.00;;;;;;;8.93;35.15;96566.44;10202563;28;20047;-55
2023/03/14 23:21:22;;;;;;;6.38;2.72;;;;;;;8.85;34.54;96569.09;10205113;28;20126;-55
2023/03/14 23:26:23;;;;;;;;;;;;;;;8.90;34.50;96559.56;10202534;28;20157;-55
2023/03/14 23:31:21;;;;;;;;;;;;;;;8.96;34.15;96561.19;10206511;28;20008;-55
2023/03/14 23:36:21;;;;;;;;;;;;;;;9.03;33.68;96555.06;10200060;28;19972;-55